sensor_id;sensor_type;location;lat;lon;timestamp;temperature;humidity
27534;DHT22;14973;51.460;7.008;2022-09-20T00:01:13;9.80;99.90
27534;DHT22;14973;51.460;7.008;2022-09-20T00:03:45;9.80;99.90
27534;DHT22;14973;51.460;7.008;2022-09-20T00:06:13;9.90;99.90
27534;DHT22;14973;51.460;7.008;2022-09-20T00:08:40;9.90;99.90
27534;DHT22;14973;51.460;7.008;2022-09-20T00:11:12;9.80;99.90
27534;DHT22;14973;51.460;7.008;2022-09-20T00:13:40;9.80;99.90
27534;DHT22;14973;51.460;7.008;2022-09-20T00:16:11;9.70;99.90
27534;DHT22;14973;51.460;7.008;2022-09-20T00:18:37;9.70;99.90
27534;DHT22;14973;51.460;7.008;2022-09-20T00:21:04;9.60;99.90
27534;DHT22;14973;51.460;7.008;2022-09-20T00:23:30;9.60;99.90
27534;DHT22;14973;51.460;7.008;2022-09-20T00:26:01;9.60;99.90
27534;DHT22;14973;51.460;7.008;2022-09-20T00:28:27;9.70;99.90
27534;DHT22;14973;51.460;7.008;2022-09-20T00:30:54;9.60;99.90
27534;DHT22;14973;51.460;7.008;2022-09-20T00:33:21;9.60;99.90
27534;DHT22;14973;51.460;7.008;2022-09-20T00:35:47;9.60;99.90
27534;DHT22;14973;51.460;7.008;2022-09-20T00:38:13;9.50;99.90
27534;DHT22;14973;51.460;7.008;2022-09-20T00:40:41;9.50;99.90
27534;DHT22;14973;51.460;7.008;2022-09-20T00:43:07;9.50;99.90
27534;DHT22;14973;51.460;7.008;2022-09-20T00:45:34;9.50;99.90
27534;DHT22;14973;51.460;7.008;2022-09-20T00:50:42;9.50;99.90
27534;DHT22;14973;51.460;7.008;2022-09-20T00:55:35;9.50;99.90
27534;DHT22;14973;51.460;7.008;2022-09-20T00:58:03;9.50;99.90
27534;DHT22;14973;51.460;7.008;2022-09-20T01:00:30;9.40;99.90
27534;DHT22;14973;51.460;7.008;2022-09-20T01:02:59;9.40;99.90
27534;DHT22;14973;51.460;7.008;2022-09-20T01:05:26;9.40;99.90
27534;DHT22;14973;51.460;7.008;2022-09-20T01:07:53;9.40;99.90
27534;DHT22;14973;51.460;7.008;2022-09-20T01:10:19;9.40;99.90
27534;DHT22;14973;51.460;7.008;2022-09-20T01:12:45;9.40;99.90
27534;DHT22;14973;51.460;7.008;2022-09-20T01:15:13;9.40;99.90
27534;DHT22;14973;51.460;7.008;2022-09-20T01:17:45;9.40;99.90
27534;DHT22;14973;51.460;7.008;2022-09-20T01:20:21;9.40;99.90
27534;DHT22;14973;51.460;7.008;2022-09-20T01:22:51;9.40;99.90
27534;DHT22;14973;51.460;7.008;2022-09-20T01:28:20;9.30;99.90
27534;DHT22;14973;51.460;7.008;2022-09-20T01:31:08;9.20;99.90
27534;DHT22;14973;51.460;7.008;2022-09-20T01:33:48;9.10;99.90
27534;DHT22;14973;51.460;7.008;2022-09-20T01:36:27;9.10;99.90
27534;DHT22;14973;51.460;7.008;2022-09-20T01:42:01;9.20;99.90
27534;DHT22;14973;51.460;7.008;2022-09-20T01:47:34;9.10;99.90
27534;DHT22;14973;51.460;7.008;2022-09-20T01:58:35;9.10;99.90
27534;DHT22;14973;51.460;7.008;2022-09-20T02:12:23;9.10;99.90
27534;DHT22;14973;51.460;7.008;2022-09-20T02:15:16;9.10;99.90
27534;DHT22;14973;51.460;7.008;2022-09-20T02:18:08;9.20;99.90
27534;DHT22;14973;51.460;7.008;2022-09-20T02:23:28;9.20;99.90
27534;DHT22;14973;51.460;7.008;2022-09-20T02:31:59;9.10;99.90
27534;DHT22;14973;51.460;7.008;2022-09-20T02:35:00;9.10;99.90
27534;DHT22;14973;51.460;7.008;2022-09-20T02:43:16;9.30;99.90
27534;DHT22;14973;51.460;7.008;2022-09-20T02:49:27;9.30;99.90
27534;DHT22;14973;51.460;7.008;2022-09-20T02:55:03;9.50;99.90
27534;DHT22;14973;51.460;7.008;2022-09-20T02:57:44;9.50;99.90
27534;DHT22;14973;51.460;7.008;2022-09-20T03:00:28;9.40;99.90
27534;DHT22;14973;51.460;7.008;2022-09-20T03:03:19;9.30;99.90
27534;DHT22;14973;51.460;7.008;2022-09-20T03:06:18;9.20;99.90
27534;DHT22;14973;51.460;7.008;2022-09-20T03:11:54;9.10;99.90
27534;DHT22;14973;51.460;7.008;2022-09-20T03:14:35;9.20;99.90
27534;DHT22;14973;51.460;7.008;2022-09-20T03:17:18;9.30;99.90
27534;DHT22;14973;51.460;7.008;2022-09-20T03:22:42;9.20;99.90
27534;DHT22;14973;51.460;7.008;2022-09-20T03:25:36;9.20;99.90
27534;DHT22;14973;51.460;7.008;2022-09-20T03:31:10;9.30;99.90
27534;DHT22;14973;51.460;7.008;2022-09-20T03:43:24;9.20;99.90
27534;DHT22;14973;51.460;7.008;2022-09-20T03:51:34;9.40;99.90
27534;DHT22;14973;51.460;7.008;2022-09-20T03:57:40;9.40;99.90
27534;DHT22;14973;51.460;7.008;2022-09-20T04:00:23;9.40;99.90
27534;DHT22;14973;51.460;7.008;2022-09-20T04:05:35;9.40;99.90
27534;DHT22;14973;51.460;7.008;2022-09-20T04:08:37;9.50;99.90
27534;DHT22;14973;51.460;7.008;2022-09-20T04:11:15;9.60;99.90
27534;DHT22;14973;51.460;7.008;2022-09-20T04:13:57;9.60;99.90
27534;DHT22;14973;51.460;7.008;2022-09-20T04:19:14;9.70;99.90
27534;DHT22;14973;51.460;7.008;2022-09-20T04:21:52;9.80;99.90
27534;DHT22;14973;51.460;7.008;2022-09-20T04:24:43;9.90;99.90
27534;DHT22;14973;51.460;7.008;2022-09-20T04:27:27;9.90;99.90
27534;DHT22;14973;51.460;7.008;2022-09-20T04:38:26;10.00;99.90
27534;DHT22;14973;51.460;7.008;2022-09-20T04:46:33;10.20;99.90
27534;DHT22;14973;51.460;7.008;2022-09-20T04:49:25;10.20;99.90
27534;DHT22;14973;51.460;7.008;2022-09-20T04:55:09;10.30;99.90
27534;DHT22;14973;51.460;7.008;2022-09-20T05:00:55;10.30;99.90
27534;DHT22;14973;51.460;7.008;2022-09-20T05:11:53;10.40;99.90
27534;DHT22;14973;51.460;7.008;2022-09-20T05:20:18;10.50;99.90
27534;DHT22;14973;51.460;7.008;2022-09-20T05:26:50;10.50;99.90
27534;DHT22;14973;51.460;7.008;2022-09-20T05:32:02;10.40;99.90
27534;DHT22;14973;51.460;7.008;2022-09-20T05:34:41;10.40;99.90
27534;DHT22;14973;51.460;7.008;2022-09-20T05:37:31;10.50;99.90
27534;DHT22;14973;51.460;7.008;2022-09-20T05:40:17;10.60;99.90
27534;DHT22;14973;51.460;7.008;2022-09-20T05:42:51;10.60;99.90
27534;DHT22;14973;51.460;7.008;2022-09-20T05:45:23;10.60;99.90
27534;DHT22;14973;51.460;7.008;2022-09-20T05:48:11;10.70;99.90
27534;DHT22;14973;51.460;7.008;2022-09-20T05:56:25;10.80;99.90
27534;DHT22;14973;51.460;7.008;2022-09-20T06:11:05;11.40;99.90
27534;DHT22;14973;51.460;7.008;2022-09-20T06:16:15;11.60;99.90
27534;DHT22;14973;51.460;7.008;2022-09-20T06:18:45;11.70;99.90
27534;DHT22;14973;51.460;7.008;2022-09-20T06:21:34;11.80;99.90
27534;DHT22;14973;51.460;7.008;2022-09-20T06:24:16;11.80;99.90
27534;DHT22;14973;51.460;7.008;2022-09-20T06:26:43;11.90;99.90
27534;DHT22;14973;51.460;7.008;2022-09-20T06:29:11;11.80;99.90
27534;DHT22;14973;51.460;7.008;2022-09-20T06:31:38;11.80;99.90
27534;DHT22;14973;51.460;7.008;2022-09-20T06:34:12;11.90;99.90
27534;DHT22;14973;51.460;7.008;2022-09-20T06:36:44;12.30;99.90
27534;DHT22;14973;51.460;7.008;2022-09-20T06:39:46;12.70;99.90
27534;DHT22;14973;51.460;7.008;2022-09-20T06:42:32;13.10;99.90
27534;DHT22;14973;51.460;7.008;2022-09-20T06:44:58;13.40;99.90
27534;DHT22;14973;51.460;7.008;2022-09-20T06:47:23;13.70;99.90
27534;DHT22;14973;51.460;7.008;2022-09-20T06:49:50;14.20;99.90
27534;DHT22;14973;51.460;7.008;2022-09-20T06:52:18;14.40;99.90
27534;DHT22;14973;51.460;7.008;2022-09-20T06:54:46;14.60;99.90
27534;DHT22;14973;51.460;7.008;2022-09-20T06:57:18;14.50;99.90
27534;DHT22;14973;51.460;7.008;2022-09-20T06:59:45;14.40;99.90
27534;DHT22;14973;51.460;7.008;2022-09-20T07:02:11;14.30;99.90
27534;DHT22;14973;51.460;7.008;2022-09-20T07:04:36;14.20;99.90
27534;DHT22;14973;51.460;7.008;2022-09-20T07:07:04;14.00;99.90
27534;DHT22;14973;51.460;7.008;2022-09-20T07:09:30;13.90;99.90
27534;DHT22;14973;51.460;7.008;2022-09-20T07:11:56;13.70;99.90
27534;DHT22;14973;51.460;7.008;2022-09-20T07:14:24;13.70;99.90
27534;DHT22;14973;51.460;7.008;2022-09-20T07:16:51;13.80;99.90
27534;DHT22;14973;51.460;7.008;2022-09-20T07:19:17;14.00;99.90
27534;DHT22;14973;51.460;7.008;2022-09-20T07:21:42;14.10;99.90
27534;DHT22;14973;51.460;7.008;2022-09-20T07:24:08;14.10;99.90
27534;DHT22;14973;51.460;7.008;2022-09-20T07:26:33;14.20;99.90
27534;DHT22;14973;51.460;7.008;2022-09-20T07:29:00;14.30;99.90
27534;DHT22;14973;51.460;7.008;2022-09-20T07:31:27;14.40;99.90
27534;DHT22;14973;51.460;7.008;2022-09-20T07:33:53;14.60;99.90
27534;DHT22;14973;51.460;7.008;2022-09-20T07:36:19;15.00;99.90
27534;DHT22;14973;51.460;7.008;2022-09-20T07:38:50;15.80;99.90
27534;DHT22;14973;51.460;7.008;2022-09-20T07:41:16;16.60;99.90
27534;DHT22;14973;51.460;7.008;2022-09-20T07:43:44;17.70;99.90
27534;DHT22;14973;51.460;7.008;2022-09-20T07:46:10;18.00;99.90
27534;DHT22;14973;51.460;7.008;2022-09-20T07:48:40;18.30;99.90
27534;DHT22;14973;51.460;7.008;2022-09-20T07:51:08;18.30;99.90
27534;DHT22;14973;51.460;7.008;2022-09-20T07:53:36;18.40;99.90
27534;DHT22;14973;51.460;7.008;2022-09-20T07:56:08;18.20;99.90
27534;DHT22;14973;51.460;7.008;2022-09-20T07:58:35;18.50;99.90
27534;DHT22;14973;51.460;7.008;2022-09-20T08:01:06;18.60;99.90
27534;DHT22;14973;51.460;7.008;2022-09-20T08:03:33;18.50;99.90
27534;DHT22;14973;51.460;7.008;2022-09-20T08:06:03;18.40;99.90
27534;DHT22;14973;51.460;7.008;2022-09-20T08:08:34;18.50;99.90
27534;DHT22;14973;51.460;7.008;2022-09-20T08:11:11;18.70;99.90
27534;DHT22;14973;51.460;7.008;2022-09-20T08:13:47;19.10;99.90
27534;DHT22;14973;51.460;7.008;2022-09-20T08:16:13;19.70;99.90
27534;DHT22;14973;51.460;7.008;2022-09-20T08:18:49;19.90;99.90
27534;DHT22;14973;51.460;7.008;2022-09-20T08:21:16;20.10;99.90
27534;DHT22;14973;51.460;7.008;2022-09-20T08:23:44;20.10;99.90
27534;DHT22;14973;51.460;7.008;2022-09-20T08:26:15;20.00;99.90
27534;DHT22;14973;51.460;7.008;2022-09-20T08:28:43;19.90;99.90
27534;DHT22;14973;51.460;7.008;2022-09-20T08:31:13;19.50;99.90
27534;DHT22;14973;51.460;7.008;2022-09-20T08:33:39;19.40;99.90
27534;DHT22;14973;51.460;7.008;2022-09-20T08:36:06;18.90;99.90
27534;DHT22;14973;51.460;7.008;2022-09-20T08:38:33;18.90;99.90
27534;DHT22;14973;51.460;7.008;2022-09-20T08:41:11;18.60;99.90
27534;DHT22;14973;51.460;7.008;2022-09-20T08:43:43;18.70;99.90
27534;DHT22;14973;51.460;7.008;2022-09-20T08:46:14;19.10;99.90
27534;DHT22;14973;51.460;7.008;2022-09-20T08:48:41;19.40;99.90
27534;DHT22;14973;51.460;7.008;2022-09-20T08:51:13;20.00;99.90
27534;DHT22;14973;51.460;7.008;2022-09-20T08:53:52;20.10;99.90
27534;DHT22;14973;51.460;7.008;2022-09-20T08:56:20;20.30;99.90
27534;DHT22;14973;51.460;7.008;2022-09-20T08:58:46;20.50;99.90
27534;DHT22;14973;51.460;7.008;2022-09-20T09:01:20;20.30;99.90
27534;DHT22;14973;51.460;7.008;2022-09-20T09:03:49;20.20;99.90
27534;DHT22;14973;51.460;7.008;2022-09-20T09:06:17;20.40;99.90
27534;DHT22;14973;51.460;7.008;2022-09-20T09:08:44;20.30;99.90
27534;DHT22;14973;51.460;7.008;2022-09-20T09:11:19;20.40;99.90
27534;DHT22;14973;51.460;7.008;2022-09-20T09:13:54;20.60;99.90
27534;DHT22;14973;51.460;7.008;2022-09-20T09:16:25;20.60;99.90
27534;DHT22;14973;51.460;7.008;2022-09-20T09:18:51;20.40;99.90
27534;DHT22;14973;51.460;7.008;2022-09-20T09:24:04;20.20;99.90
27534;DHT22;14973;51.460;7.008;2022-09-20T09:26:38;20.00;99.90
27534;DHT22;14973;51.460;7.008;2022-09-20T09:29:17;19.90;99.90
27534;DHT22;14973;51.460;7.008;2022-09-20T09:31:45;20.00;99.90
27534;DHT22;14973;51.460;7.008;2022-09-20T09:34:26;19.90;99.90
27534;DHT22;14973;51.460;7.008;2022-09-20T09:36:52;19.50;99.90
27534;DHT22;14973;51.460;7.008;2022-09-20T09:39:27;19.30;99.90
27534;DHT22;14973;51.460;7.008;2022-09-20T09:41:54;19.10;99.90
27534;DHT22;14973;51.460;7.008;2022-09-20T09:44:23;19.10;99.90
27534;DHT22;14973;51.460;7.008;2022-09-20T09:46:50;19.00;99.90
27534;DHT22;14973;51.460;7.008;2022-09-20T09:52:13;18.50;99.90
27534;DHT22;14973;51.460;7.008;2022-09-20T09:54:47;17.90;99.90
27534;DHT22;14973;51.460;7.008;2022-09-20T10:00:12;17.70;99.90
27534;DHT22;14973;51.460;7.008;2022-09-20T10:05:35;17.80;99.90
27534;DHT22;14973;51.460;7.008;2022-09-20T10:11:01;17.90;99.90
27534;DHT22;14973;51.460;7.008;2022-09-20T10:13:37;17.80;99.90
27534;DHT22;14973;51.460;7.008;2022-09-20T10:25:00;17.00;99.90
27534;DHT22;14973;51.460;7.008;2022-09-20T10:30:11;17.20;99.90
27534;DHT22;14973;51.460;7.008;2022-09-20T10:38:50;18.10;99.90
27534;DHT22;14973;51.460;7.008;2022-09-20T10:54:40;19.90;99.90
27534;DHT22;14973;51.460;7.008;2022-09-20T10:57:21;19.90;99.90
27534;DHT22;14973;51.460;7.008;2022-09-20T11:08:57;20.90;99.90
27534;DHT22;14973;51.460;7.008;2022-09-20T11:11:34;20.70;99.90
27534;DHT22;14973;51.460;7.008;2022-09-20T11:14:12;20.90;99.90
27534;DHT22;14973;51.460;7.008;2022-09-20T11:16:43;21.10;99.90
27534;DHT22;14973;51.460;7.008;2022-09-20T11:19:22;21.50;99.90
27534;DHT22;14973;51.460;7.008;2022-09-20T11:22:11;21.60;99.90
27534;DHT22;14973;51.460;7.008;2022-09-20T11:24:42;21.40;99.90
27534;DHT22;14973;51.460;7.008;2022-09-20T11:27:25;21.50;99.90
27534;DHT22;14973;51.460;7.008;2022-09-20T11:30:05;21.40;99.90
27534;DHT22;14973;51.460;7.008;2022-09-20T11:33:05;21.30;99.90
27534;DHT22;14973;51.460;7.008;2022-09-20T11:35:45;21.30;99.90
27534;DHT22;14973;51.460;7.008;2022-09-20T11:38:21;21.20;99.90
27534;DHT22;14973;51.460;7.008;2022-09-20T11:43:24;21.30;99.90
27534;DHT22;14973;51.460;7.008;2022-09-20T11:46:00;21.50;99.90
27534;DHT22;14973;51.460;7.008;2022-09-20T11:48:43;21.70;99.90
27534;DHT22;14973;51.460;7.008;2022-09-20T11:51:15;21.70;99.90
27534;DHT22;14973;51.460;7.008;2022-09-20T11:56:53;21.50;99.90
27534;DHT22;14973;51.460;7.008;2022-09-20T11:59:34;21.80;99.90
27534;DHT22;14973;51.460;7.008;2022-09-20T12:02:04;21.90;99.90
27534;DHT22;14973;51.460;7.008;2022-09-20T12:04:37;21.80;99.90
27534;DHT22;14973;51.460;7.008;2022-09-20T12:07:15;21.60;99.90
27534;DHT22;14973;51.460;7.008;2022-09-20T12:09:44;21.80;99.90
27534;DHT22;14973;51.460;7.008;2022-09-20T12:12:40;21.90;99.20
27534;DHT22;14973;51.460;7.008;2022-09-20T12:28:37;21.00;99.50
27534;DHT22;14973;51.460;7.008;2022-09-20T12:36:32;21.30;98.50
27534;DHT22;14973;51.460;7.008;2022-09-20T12:39:05;21.00;99.10
27534;DHT22;14973;51.460;7.008;2022-09-20T12:55:28;21.40;98.00
27534;DHT22;14973;51.460;7.008;2022-09-20T13:00:51;21.50;98.20
27534;DHT22;14973;51.460;7.008;2022-09-20T13:03:42;21.50;98.00
27534;DHT22;14973;51.460;7.008;2022-09-20T13:11:40;22.00;97.10
27534;DHT22;14973;51.460;7.008;2022-09-20T13:14:12;21.60;98.00
27534;DHT22;14973;51.460;7.008;2022-09-20T13:19:46;21.10;97.70
27534;DHT22;14973;51.460;7.008;2022-09-20T13:22:24;20.90;98.70
27534;DHT22;14973;51.460;7.008;2022-09-20T13:24:52;20.90;98.70
27534;DHT22;14973;51.460;7.008;2022-09-20T13:27:28;20.70;98.60
27534;DHT22;14973;51.460;7.008;2022-09-20T13:30:16;20.30;99.20
27534;DHT22;14973;51.460;7.008;2022-09-20T13:32:42;20.20;99.40
27534;DHT22;14973;51.460;7.008;2022-09-20T13:38:06;19.90;99.90
27534;DHT22;14973;51.460;7.008;2022-09-20T13:40:44;19.80;99.90
27534;DHT22;14973;51.460;7.008;2022-09-20T13:43:35;19.80;99.90
27534;DHT22;14973;51.460;7.008;2022-09-20T13:46:13;19.30;99.90
27534;DHT22;14973;51.460;7.008;2022-09-20T13:48:41;19.20;99.90
27534;DHT22;14973;51.460;7.008;2022-09-20T13:51:39;19.00;99.90
27534;DHT22;14973;51.460;7.008;2022-09-20T13:54:24;18.80;99.90
27534;DHT22;14973;51.460;7.008;2022-09-20T13:56:54;18.70;99.90
27534;DHT22;14973;51.460;7.008;2022-09-20T13:59:20;18.70;99.90
27534;DHT22;14973;51.460;7.008;2022-09-20T14:01:54;18.70;99.90
27534;DHT22;14973;51.460;7.008;2022-09-20T14:04:22;18.80;99.90
27534;DHT22;14973;51.460;7.008;2022-09-20T14:06:51;18.80;99.90
27534;DHT22;14973;51.460;7.008;2022-09-20T14:09:37;18.90;99.90
27534;DHT22;14973;51.460;7.008;2022-09-20T14:12:04;18.80;99.90
27534;DHT22;14973;51.460;7.008;2022-09-20T14:14:31;18.80;99.90
27534;DHT22;14973;51.460;7.008;2022-09-20T14:17:00;18.70;99.90
27534;DHT22;14973;51.460;7.008;2022-09-20T14:19:31;18.60;99.90
27534;DHT22;14973;51.460;7.008;2022-09-20T14:22:04;18.50;99.90
27534;DHT22;14973;51.460;7.008;2022-09-20T14:24:33;18.30;99.90
27534;DHT22;14973;51.460;7.008;2022-09-20T14:27:19;18.10;99.90
27534;DHT22;14973;51.460;7.008;2022-09-20T14:29:47;17.90;99.90
27534;DHT22;14973;51.460;7.008;2022-09-20T14:34:55;17.50;99.90
27534;DHT22;14973;51.460;7.008;2022-09-20T14:40:16;17.40;99.90
27534;DHT22;14973;51.460;7.008;2022-09-20T14:42:45;17.40;99.90
27534;DHT22;14973;51.460;7.008;2022-09-20T14:45:35;17.30;99.90
27534;DHT22;14973;51.460;7.008;2022-09-20T14:50:35;17.50;99.90
27534;DHT22;14973;51.460;7.008;2022-09-20T14:53:21;17.30;99.90
27534;DHT22;14973;51.460;7.008;2022-09-20T14:56:38;17.30;99.90
27534;DHT22;14973;51.460;7.008;2022-09-20T14:59:19;17.30;99.90
27534;DHT22;14973;51.460;7.008;2022-09-20T15:04:23;17.20;99.90
27534;DHT22;14973;51.460;7.008;2022-09-20T15:06:51;17.40;99.90
27534;DHT22;14973;51.460;7.008;2022-09-20T15:09:18;17.60;99.90
27534;DHT22;14973;51.460;7.008;2022-09-20T15:11:44;17.50;99.90
27534;DHT22;14973;51.460;7.008;2022-09-20T15:14:10;17.50;99.90
27534;DHT22;14973;51.460;7.008;2022-09-20T15:16:36;17.50;99.90
27534;DHT22;14973;51.460;7.008;2022-09-20T15:19:02;17.40;99.90
27534;DHT22;14973;51.460;7.008;2022-09-20T15:21:28;17.40;99.90
27534;DHT22;14973;51.460;7.008;2022-09-20T15:23:54;17.50;99.90
27534;DHT22;14973;51.460;7.008;2022-09-20T15:26:20;17.50;99.90
27534;DHT22;14973;51.460;7.008;2022-09-20T15:28:46;17.40;99.90
27534;DHT22;14973;51.460;7.008;2022-09-20T15:31:12;17.40;99.90
27534;DHT22;14973;51.460;7.008;2022-09-20T15:33:39;17.30;99.90
27534;DHT22;14973;51.460;7.008;2022-09-20T15:36:06;17.40;99.90
27534;DHT22;14973;51.460;7.008;2022-09-20T15:38:32;17.60;99.90
27534;DHT22;14973;51.460;7.008;2022-09-20T15:41:03;17.50;99.90
27534;DHT22;14973;51.460;7.008;2022-09-20T15:43:29;17.50;99.90
27534;DHT22;14973;51.460;7.008;2022-09-20T15:46:00;17.50;99.90
27534;DHT22;14973;51.460;7.008;2022-09-20T15:48:29;17.50;99.90
27534;DHT22;14973;51.460;7.008;2022-09-20T15:51:03;17.50;99.90
27534;DHT22;14973;51.460;7.008;2022-09-20T15:53:41;17.50;99.90
27534;DHT22;14973;51.460;7.008;2022-09-20T15:56:18;17.40;99.90
27534;DHT22;14973;51.460;7.008;2022-09-20T15:58:55;17.30;99.90
27534;DHT22;14973;51.460;7.008;2022-09-20T16:01:25;17.30;99.90
27534;DHT22;14973;51.460;7.008;2022-09-20T16:03:53;17.10;99.90
27534;DHT22;14973;51.460;7.008;2022-09-20T16:06:19;16.90;99.90
27534;DHT22;14973;51.460;7.008;2022-09-20T16:08:44;16.80;99.90
27534;DHT22;14973;51.460;7.008;2022-09-20T16:11:15;16.80;99.90
27534;DHT22;14973;51.460;7.008;2022-09-20T16:13:40;16.70;99.90
27534;DHT22;14973;51.460;7.008;2022-09-20T16:16:08;16.70;99.90
27534;DHT22;14973;51.460;7.008;2022-09-20T16:18:35;16.50;99.90
27534;DHT22;14973;51.460;7.008;2022-09-20T16:21:20;16.30;99.90
27534;DHT22;14973;51.460;7.008;2022-09-20T16:23:51;16.30;99.90
27534;DHT22;14973;51.460;7.008;2022-09-20T16:26:17;16.20;99.90
27534;DHT22;14973;51.460;7.008;2022-09-20T16:28:44;16.10;99.90
27534;DHT22;14973;51.460;7.008;2022-09-20T16:31:37;16.20;99.90
27534;DHT22;14973;51.460;7.008;2022-09-20T16:34:26;16.10;99.90
27534;DHT22;14973;51.460;7.008;2022-09-20T16:36:59;16.00;99.90
27534;DHT22;14973;51.460;7.008;2022-09-20T16:39:27;15.90;99.90
27534;DHT22;14973;51.460;7.008;2022-09-20T16:41:55;15.80;99.90
27534;DHT22;14973;51.460;7.008;2022-09-20T16:44:34;15.70;99.90
27534;DHT22;14973;51.460;7.008;2022-09-20T16:47:00;15.70;99.90
27534;DHT22;14973;51.460;7.008;2022-09-20T16:49:25;15.60;99.90
27534;DHT22;14973;51.460;7.008;2022-09-20T16:51:52;15.60;99.90
27534;DHT22;14973;51.460;7.008;2022-09-20T16:54:18;15.50;99.90
27534;DHT22;14973;51.460;7.008;2022-09-20T16:56:48;15.50;99.90
27534;DHT22;14973;51.460;7.008;2022-09-20T16:59:19;15.50;99.90
27534;DHT22;14973;51.460;7.008;2022-09-20T17:01:49;15.50;99.90
27534;DHT22;14973;51.460;7.008;2022-09-20T17:04:15;15.40;99.90
27534;DHT22;14973;51.460;7.008;2022-09-20T17:06:43;15.30;99.90
27534;DHT22;14973;51.460;7.008;2022-09-20T17:09:10;15.20;99.90
27534;DHT22;14973;51.460;7.008;2022-09-20T17:11:38;15.20;99.90
27534;DHT22;14973;51.460;7.008;2022-09-20T17:14:05;15.20;99.90
27534;DHT22;14973;51.460;7.008;2022-09-20T17:16:36;15.10;99.90
27534;DHT22;14973;51.460;7.008;2022-09-20T17:19:08;14.90;99.90
27534;DHT22;14973;51.460;7.008;2022-09-20T17:21:39;14.90;99.90
27534;DHT22;14973;51.460;7.008;2022-09-20T17:24:05;14.80;99.90
27534;DHT22;14973;51.460;7.008;2022-09-20T17:26:34;14.80;99.90
27534;DHT22;14973;51.460;7.008;2022-09-20T17:29:03;14.70;99.90
27534;DHT22;14973;51.460;7.008;2022-09-20T17:31:32;14.70;99.90
27534;DHT22;14973;51.460;7.008;2022-09-20T17:33:59;14.60;99.90
27534;DHT22;14973;51.460;7.008;2022-09-20T17:36:30;14.50;99.90
27534;DHT22;14973;51.460;7.008;2022-09-20T17:38:58;14.30;99.90
27534;DHT22;14973;51.460;7.008;2022-09-20T17:41:25;14.30;99.90
27534;DHT22;14973;51.460;7.008;2022-09-20T17:43:53;14.10;99.90
27534;DHT22;14973;51.460;7.008;2022-09-20T17:46:21;14.00;99.90
27534;DHT22;14973;51.460;7.008;2022-09-20T17:48:54;14.00;99.90
27534;DHT22;14973;51.460;7.008;2022-09-20T17:51:23;13.80;99.90
27534;DHT22;14973;51.460;7.008;2022-09-20T17:53:49;13.80;99.90
27534;DHT22;14973;51.460;7.008;2022-09-20T17:56:15;13.60;99.90
27534;DHT22;14973;51.460;7.008;2022-09-20T17:58:41;13.50;99.90
27534;DHT22;14973;51.460;7.008;2022-09-20T18:01:10;13.50;99.90
27534;DHT22;14973;51.460;7.008;2022-09-20T18:03:38;13.40;99.90
27534;DHT22;14973;51.460;7.008;2022-09-20T18:08:58;13.30;99.90
27534;DHT22;14973;51.460;7.008;2022-09-20T18:11:30;13.20;99.90
27534;DHT22;14973;51.460;7.008;2022-09-20T18:13:57;13.10;99.90
27534;DHT22;14973;51.460;7.008;2022-09-20T18:16:23;13.00;99.90
27534;DHT22;14973;51.460;7.008;2022-09-20T18:18:48;12.90;99.90
27534;DHT22;14973;51.460;7.008;2022-09-20T18:21:19;12.90;99.90
27534;DHT22;14973;51.460;7.008;2022-09-20T18:23:46;12.90;99.90
27534;DHT22;14973;51.460;7.008;2022-09-20T18:26:14;12.90;99.90
27534;DHT22;14973;51.460;7.008;2022-09-20T18:28:58;12.90;99.90
27534;DHT22;14973;51.460;7.008;2022-09-20T18:31:36;12.80;99.90
27534;DHT22;14973;51.460;7.008;2022-09-20T18:34:07;12.80;99.90
27534;DHT22;14973;51.460;7.008;2022-09-20T18:36:36;12.80;99.90
27534;DHT22;14973;51.460;7.008;2022-09-20T18:39:04;12.80;99.90
27534;DHT22;14973;51.460;7.008;2022-09-20T18:41:32;12.70;99.90
27534;DHT22;14973;51.460;7.008;2022-09-20T18:44:00;12.70;99.90
27534;DHT22;14973;51.460;7.008;2022-09-20T18:46:27;12.70;99.90
27534;DHT22;14973;51.460;7.008;2022-09-20T18:48:58;12.70;99.90
27534;DHT22;14973;51.460;7.008;2022-09-20T18:51:26;12.60;99.90
27534;DHT22;14973;51.460;7.008;2022-09-20T18:53:55;12.60;99.90
27534;DHT22;14973;51.460;7.008;2022-09-20T18:56:22;12.60;99.90
27534;DHT22;14973;51.460;7.008;2022-09-20T18:58:54;12.60;99.90
27534;DHT22;14973;51.460;7.008;2022-09-20T19:01:42;12.50;99.90
27534;DHT22;14973;51.460;7.008;2022-09-20T19:23:56;12.00;99.90
27534;DHT22;14973;51.460;7.008;2022-09-20T19:26:25;12.00;99.90
27534;DHT22;14973;51.460;7.008;2022-09-20T19:28:53;11.90;99.90
27534;DHT22;14973;51.460;7.008;2022-09-20T19:31:33;11.90;99.90
27534;DHT22;14973;51.460;7.008;2022-09-20T19:34:01;11.80;99.90
27534;DHT22;14973;51.460;7.008;2022-09-20T19:36:43;11.80;99.90
27534;DHT22;14973;51.460;7.008;2022-09-20T19:41:57;11.60;99.90
27534;DHT22;14973;51.460;7.008;2022-09-20T19:47:40;11.60;99.90
27534;DHT22;14973;51.460;7.008;2022-09-20T19:50:30;11.50;99.90
27534;DHT22;14973;51.460;7.008;2022-09-20T19:52:58;11.40;99.90
27534;DHT22;14973;51.460;7.008;2022-09-20T19:55:29;11.40;99.90
27534;DHT22;14973;51.460;7.008;2022-09-20T19:57:55;11.30;99.90
27534;DHT22;14973;51.460;7.008;2022-09-20T20:00:21;11.20;99.90
27534;DHT22;14973;51.460;7.008;2022-09-20T20:02:47;11.20;99.90
27534;DHT22;14973;51.460;7.008;2022-09-20T20:05:15;11.20;99.90
27534;DHT22;14973;51.460;7.008;2022-09-20T20:18:33;11.20;99.90
27534;DHT22;14973;51.460;7.008;2022-09-20T20:21:11;11.30;99.90
27534;DHT22;14973;51.460;7.008;2022-09-20T20:23:55;11.20;99.90
27534;DHT22;14973;51.460;7.008;2022-09-20T20:26:24;11.10;99.90
27534;DHT22;14973;51.460;7.008;2022-09-20T20:28:51;11.00;99.90
27534;DHT22;14973;51.460;7.008;2022-09-20T20:31:18;10.90;99.90
27534;DHT22;14973;51.460;7.008;2022-09-20T20:33:44;10.80;99.90
27534;DHT22;14973;51.460;7.008;2022-09-20T20:36:10;10.90;99.90
27534;DHT22;14973;51.460;7.008;2022-09-20T20:38:37;10.80;99.90
27534;DHT22;14973;51.460;7.008;2022-09-20T20:41:10;10.80;99.90
27534;DHT22;14973;51.460;7.008;2022-09-20T20:43:38;10.80;99.90
27534;DHT22;14973;51.460;7.008;2022-09-20T20:46:05;10.70;99.90
27534;DHT22;14973;51.460;7.008;2022-09-20T20:48:31;10.70;99.90
27534;DHT22;14973;51.460;7.008;2022-09-20T20:51:08;10.60;99.90
27534;DHT22;14973;51.460;7.008;2022-09-20T20:53:36;10.50;99.90
27534;DHT22;14973;51.460;7.008;2022-09-20T20:56:07;10.50;99.90
27534;DHT22;14973;51.460;7.008;2022-09-20T20:58:37;10.40;99.90
27534;DHT22;14973;51.460;7.008;2022-09-20T21:03:39;10.40;99.90
27534;DHT22;14973;51.460;7.008;2022-09-20T21:06:05;10.30;99.90
27534;DHT22;14973;51.460;7.008;2022-09-20T21:08:37;10.30;99.90
27534;DHT22;14973;51.460;7.008;2022-09-20T21:11:08;10.20;99.90
27534;DHT22;14973;51.460;7.008;2022-09-20T21:13:38;10.20;99.90